createdAt,value
2023-01-05T00:00:20.506Z,1004.60
2023-01-05T00:01:20.498Z,1004.62
2023-01-05T00:02:24.383Z,1004.57
2023-01-05T00:03:20.364Z,1004.57
2023-01-05T00:04:20.358Z,1004.62
2023-01-05T00:05:20.312Z,1004.64
2023-01-05T00:06:20.344Z,1004.66
2023-01-05T00:07:20.233Z,1004.68
2023-01-05T00:08:20.196Z,1004.58
2023-01-05T00:09:20.159Z,1004.63
2023-01-05T00:10:20.134Z,1004.67
2023-01-05T00:11:20.115Z,1004.56
2023-01-05T00:12:20.127Z,1004.51
2023-01-05T00:13:20.064Z,1004.57
2023-01-05T00:14:20.000Z,1004.57
2023-01-05T00:15:19.956Z,1004.60
2023-01-05T00:16:19.936Z,1004.61
2023-01-05T00:17:19.890Z,1004.48
2023-01-05T00:18:19.937Z,1004.54
2023-01-05T00:19:19.830Z,1004.57
2023-01-05T00:20:19.801Z,1004.58
2023-01-05T00:21:19.768Z,1004.46
2023-01-05T00:22:19.728Z,1004.49
2023-01-05T00:23:19.694Z,1004.52
2023-01-05T00:24:19.706Z,1004.46
2023-01-05T00:25:19.620Z,1004.52
2023-01-05T00:26:19.588Z,1004.48
2023-01-05T00:27:19.560Z,1004.42
2023-01-05T00:28:19.524Z,1004.56
2023-01-05T00:29:19.532Z,1004.49
2023-01-05T00:30:19.456Z,1004.52
2023-01-05T00:31:19.451Z,1004.57
2023-01-05T00:32:19.388Z,1004.58
2023-01-05T00:33:19.365Z,1004.49
2023-01-05T00:34:19.322Z,1004.52
2023-01-05T00:35:19.362Z,1004.53
2023-01-05T00:36:19.278Z,1004.46
2023-01-05T00:37:19.213Z,1004.45
2023-01-05T00:38:19.203Z,1004.43
2023-01-05T00:39:19.152Z,1004.50
2023-01-05T00:40:19.124Z,1004.43
2023-01-05T00:41:19.138Z,1004.48
2023-01-05T00:42:19.050Z,1004.53
2023-01-05T00:43:19.008Z,1004.47
2023-01-05T00:44:18.979Z,1004.52
2023-01-05T00:45:18.979Z,1004.48
2023-01-05T00:46:18.937Z,1004.49
2023-01-05T00:47:18.952Z,1004.48
2023-01-05T00:48:18.868Z,1004.46
2023-01-05T00:49:18.801Z,1004.43
2023-01-05T00:50:18.792Z,1004.51
2023-01-05T00:51:18.743Z,1004.51
2023-01-05T00:52:18.714Z,1004.49
2023-01-05T00:53:18.725Z,1004.49
2023-01-05T00:54:18.638Z,1004.49
2023-01-05T00:55:18.664Z,1004.41
2023-01-05T00:56:18.572Z,1004.42
2023-01-05T00:57:18.545Z,1004.43
2023-01-05T00:58:18.506Z,1004.45
2023-01-05T00:59:18.468Z,1004.43
2023-01-05T01:00:18.515Z,1004.42
2023-01-05T01:01:18.487Z,1004.45
2023-01-05T01:02:18.519Z,1004.45
2023-01-05T01:03:18.366Z,1004.37
2023-01-05T01:04:18.297Z,1004.39
2023-01-05T01:05:18.340Z,1004.39
2023-01-05T01:06:18.238Z,1004.39
2023-01-05T01:07:18.198Z,1004.42
2023-01-05T01:08:18.166Z,1004.38
2023-01-05T01:09:18.143Z,1004.40
2023-01-05T01:10:18.127Z,1004.35
2023-01-05T01:11:18.131Z,1004.36
2023-01-05T01:12:18.030Z,1004.44
2023-01-05T01:13:17.996Z,1004.40
2023-01-05T01:14:17.967Z,1004.46
2023-01-05T01:15:17.933Z,1004.42
2023-01-05T01:16:17.912Z,1004.46
2023-01-05T01:17:17.946Z,1004.46
2023-01-05T01:18:17.844Z,1004.47
2023-01-05T01:19:17.832Z,1004.50
2023-01-05T01:20:17.779Z,1004.61
2023-01-05T01:21:17.731Z,1004.53
2023-01-05T01:22:17.701Z,1004.56
2023-01-05T01:23:17.723Z,1004.54
2023-01-05T01:24:17.638Z,1004.63
2023-01-05T01:25:17.609Z,1004.57
2023-01-05T01:26:17.568Z,1004.57
2023-01-05T01:27:17.578Z,1004.62
2023-01-05T01:28:17.496Z,1004.61
2023-01-05T01:29:17.613Z,1004.61
2023-01-05T01:30:17.434Z,1004.58
2023-01-05T01:31:17.542Z,1004.58
2023-01-05T01:32:17.362Z,1004.61
2023-01-05T01:33:17.332Z,1004.63
2023-01-05T01:34:17.317Z,1004.57
2023-01-05T01:35:17.328Z,1004.59
2023-01-05T01:36:17.229Z,1004.71
2023-01-05T01:37:17.201Z,1004.71
2023-01-05T01:38:17.172Z,1004.66
2023-01-05T01:39:17.131Z,1004.73
2023-01-05T01:40:17.153Z,1004.65
2023-01-05T01:41:17.057Z,1004.66
2023-01-05T01:42:17.049Z,1004.70
2023-01-05T01:43:16.996Z,1004.71
2023-01-05T01:44:16.976Z,1004.67
2023-01-05T01:45:16.981Z,1004.69
2023-01-05T01:46:16.938Z,1004.63
2023-01-05T01:47:16.873Z,1004.56
2023-01-05T01:48:16.827Z,1004.65
2023-01-05T01:49:16.793Z,1004.69
2023-01-05T01:50:16.836Z,1004.72
2023-01-05T01:51:16.727Z,1004.66
2023-01-05T01:52:16.699Z,1004.64
2023-01-05T01:53:16.663Z,1004.60
2023-01-05T01:54:16.639Z,1004.65
2023-01-05T01:55:16.654Z,1004.71
2023-01-05T01:56:16.567Z,1004.62
2023-01-05T01:57:16.542Z,1004.67
2023-01-05T01:58:16.496Z,1004.71
2023-01-05T01:59:16.467Z,1004.71
2023-01-05T02:00:16.500Z,1004.74
2023-01-05T02:01:16.546Z,1004.76
2023-01-05T02:02:16.438Z,1004.68
2023-01-05T02:03:16.339Z,1004.74
2023-01-05T02:04:16.339Z,1004.74
2023-01-05T02:05:16.260Z,1004.69
2023-01-05T02:06:16.695Z,1004.70
2023-01-05T02:07:16.205Z,1004.64
2023-01-05T02:08:16.172Z,1004.72
2023-01-05T02:09:16.129Z,1004.70
2023-01-05T02:10:16.092Z,1004.63
2023-01-05T02:11:16.064Z,1004.61
2023-01-05T02:12:16.091Z,1004.66
2023-01-05T02:13:16.025Z,1004.62
2023-01-05T02:14:15.988Z,1004.60
2023-01-05T02:15:15.932Z,1004.62
2023-01-05T02:16:15.907Z,1004.67
2023-01-05T02:17:15.875Z,1004.77
2023-01-05T02:18:15.898Z,1004.64
2023-01-05T02:19:15.792Z,1004.62
2023-01-05T02:20:15.763Z,1004.64
2023-01-05T02:21:17.261Z,1004.62
2023-01-05T02:22:15.693Z,1004.60
2023-01-05T02:23:15.663Z,1004.55
2023-01-05T02:24:15.679Z,1004.59
2023-01-05T02:25:15.602Z,1004.55
2023-01-05T02:26:15.565Z,1004.54
2023-01-05T02:27:15.531Z,1004.49
2023-01-05T02:28:15.489Z,1004.55
2023-01-05T02:29:15.459Z,1004.51
2023-01-05T02:30:15.489Z,1004.52
2023-01-05T02:31:15.441Z,1004.56
2023-01-05T02:32:15.372Z,1004.57
2023-01-05T02:33:15.333Z,1004.50
2023-01-05T02:34:15.402Z,1004.56
2023-01-05T02:35:15.264Z,1004.45
2023-01-05T02:36:15.321Z,1004.49
2023-01-05T02:37:15.194Z,1004.46
2023-01-05T02:38:15.172Z,1004.58
2023-01-05T02:39:15.137Z,1004.53
2023-01-05T02:40:15.097Z,1004.55
2023-01-05T02:41:15.127Z,1004.54
2023-01-05T02:42:15.029Z,1004.60
2023-01-05T02:43:14.995Z,1004.61
2023-01-05T02:44:14.982Z,1004.61
2023-01-05T02:45:14.935Z,1004.57
2023-01-05T02:46:14.920Z,1004.62
2023-01-05T02:47:14.920Z,1004.58
2023-01-05T02:48:14.832Z,1004.60
2023-01-05T02:49:14.793Z,1004.65
2023-01-05T02:50:14.764Z,1004.57
2023-01-05T02:51:14.732Z,1004.60
2023-01-05T02:52:14.762Z,1004.57
2023-01-05T02:53:14.681Z,1004.53
2023-01-05T02:54:14.623Z,1004.58
2023-01-05T02:55:14.615Z,1004.54
2023-01-05T02:56:14.562Z,1004.59
2023-01-05T02:57:14.579Z,1004.60
2023-01-05T02:58:14.499Z,1004.57
2023-01-05T02:59:14.461Z,1004.55
2023-01-05T03:00:14.423Z,1004.54
2023-01-05T03:01:14.569Z,1004.63
2023-01-05T03:02:14.543Z,1004.55
2023-01-05T03:03:14.390Z,1004.61
2023-01-05T03:04:14.304Z,1004.60
2023-01-05T03:05:14.257Z,1004.62
2023-01-05T03:06:14.269Z,1004.61
2023-01-05T03:07:14.242Z,1004.74
2023-01-05T03:08:14.152Z,1004.62
2023-01-05T03:09:14.130Z,1004.60
2023-01-05T03:10:14.093Z,1004.61
2023-01-05T03:11:14.057Z,1004.61
2023-01-05T03:12:14.028Z,1004.56
2023-01-05T03:13:14.056Z,1004.61
2023-01-05T03:14:13.959Z,1004.60
2023-01-05T03:15:13.928Z,1004.65
2023-01-05T03:16:13.916Z,1004.65
2023-01-05T03:17:13.868Z,1004.61
2023-01-05T03:18:13.821Z,1004.60
2023-01-05T03:19:13.922Z,1004.58
2023-01-05T03:20:13.759Z,1004.66
2023-01-05T03:21:13.723Z,1004.49
2023-01-05T03:22:13.700Z,1004.57
2023-01-05T03:23:13.692Z,1004.57
2023-01-05T03:24:13.631Z,1004.66
2023-01-05T03:25:13.636Z,1004.56
2023-01-05T03:26:13.555Z,1004.61
2023-01-05T03:27:13.516Z,1004.57
2023-01-05T03:28:13.557Z,1004.58
2023-01-05T03:29:13.455Z,1004.63
2023-01-05T03:30:13.419Z,1004.70
2023-01-05T03:31:13.420Z,1004.64
2023-01-05T03:32:13.360Z,1004.65
2023-01-05T03:33:13.378Z,1004.57
2023-01-05T03:34:13.299Z,1004.60
2023-01-05T03:35:13.273Z,1004.72
2023-01-05T03:36:13.226Z,1004.68
2023-01-05T03:37:13.199Z,1004.63
2023-01-05T03:38:17.822Z,1004.61
2023-01-05T03:39:13.114Z,1004.65
2023-01-05T03:40:13.096Z,1004.63
2023-01-05T03:41:13.077Z,1004.74
2023-01-05T03:42:13.018Z,1004.60
2023-01-05T03:43:13.043Z,1004.64
2023-01-05T03:44:12.954Z,1004.64
2023-01-05T03:45:12.922Z,1004.65
2023-01-05T03:46:12.895Z,1004.71
2023-01-05T03:47:12.856Z,1004.64
2023-01-05T03:48:12.825Z,1004.61
2023-01-05T03:49:12.868Z,1004.70
2023-01-05T03:50:12.748Z,1004.58
2023-01-05T03:51:12.736Z,1004.64
2023-01-05T03:52:12.686Z,1004.64
2023-01-05T03:53:12.654Z,1004.71
2023-01-05T03:54:12.674Z,1004.63
2023-01-05T03:55:12.582Z,1004.67
2023-01-05T03:56:12.575Z,1004.73
2023-01-05T03:57:12.515Z,1004.74
2023-01-05T03:58:12.489Z,1004.81
2023-01-05T03:59:12.521Z,1004.83
2023-01-05T04:00:12.418Z,1004.71
2023-01-05T04:01:12.618Z,1004.75
2023-01-05T04:02:12.420Z,1004.84
2023-01-05T04:03:12.416Z,1004.81
2023-01-05T04:04:12.279Z,1004.87
2023-01-05T04:05:12.331Z,1004.94
2023-01-05T04:06:12.219Z,1004.82
2023-01-05T04:07:12.193Z,1004.85
2023-01-05T04:08:12.150Z,1004.86
2023-01-05T04:09:12.114Z,1004.83
2023-01-05T04:10:12.096Z,1004.87
2023-01-05T04:11:12.110Z,1004.91
2023-01-05T04:12:12.021Z,1004.97
2023-01-05T04:13:11.996Z,1004.96
2023-01-05T04:14:11.957Z,1004.95
2023-01-05T04:15:11.919Z,1005.02
2023-01-05T04:16:11.972Z,1005.05
2023-01-05T04:17:11.856Z,1004.96
2023-01-05T04:18:11.813Z,1005.01
2023-01-05T04:19:11.791Z,1005.01
2023-01-05T04:20:11.752Z,1005.04
2023-01-05T04:21:11.729Z,1004.99
2023-01-05T04:22:11.759Z,1005.01
2023-01-05T04:23:11.660Z,1005.03
2023-01-05T04:24:11.624Z,1005.04
2023-01-05T04:25:11.582Z,1005.08
2023-01-05T04:26:11.554Z,1005.12
2023-01-05T04:27:11.529Z,1005.04
2023-01-05T04:28:11.543Z,1005.02
2023-01-05T04:29:11.455Z,1005.03
2023-01-05T04:30:11.433Z,1005.02
2023-01-05T04:31:11.427Z,1005.11
2023-01-05T04:32:11.399Z,1005.14
2023-01-05T04:33:11.326Z,1005.10
2023-01-05T04:34:11.284Z,1005.09
2023-01-05T04:35:11.817Z,1005.10
2023-01-05T04:36:11.216Z,1005.11
2023-01-05T04:37:11.290Z,1005.14
2023-01-05T04:38:11.167Z,1005.10
2023-01-05T04:39:11.113Z,1005.10
2023-01-05T04:40:11.093Z,1005.05
2023-01-05T04:41:11.051Z,1005.04
2023-01-05T04:42:11.094Z,1005.15
2023-01-05T04:43:10.989Z,1005.05
2023-01-05T04:44:10.947Z,1005.10
2023-01-05T04:45:10.921Z,1005.06
2023-01-05T04:46:10.978Z,1005.05
2023-01-05T04:47:10.860Z,1005.05
2023-01-05T04:48:10.884Z,1005.05
2023-01-05T04:49:10.792Z,1005.00
2023-01-05T04:50:10.750Z,1005.06
2023-01-05T04:51:10.712Z,1005.11
2023-01-05T04:52:10.685Z,1005.13
2023-01-05T04:53:10.701Z,1005.18
2023-01-05T04:54:10.624Z,1005.10
2023-01-05T04:55:10.581Z,1005.18
2023-01-05T04:56:10.560Z,1005.21
2023-01-05T04:57:10.527Z,1005.19
2023-01-05T04:58:12.140Z,1005.17
2023-01-05T04:59:10.453Z,1005.21
2023-01-05T05:00:10.421Z,1005.29
2023-01-05T05:01:10.400Z,1005.25
2023-01-05T05:02:10.482Z,1005.24
2023-01-05T05:03:10.434Z,1005.16
2023-01-05T05:04:10.342Z,1005.19
2023-01-05T05:05:10.256Z,1005.20
2023-01-05T05:06:10.223Z,1005.23
2023-01-05T05:07:10.180Z,1005.12
2023-01-05T05:08:10.167Z,1005.13
2023-01-05T05:09:10.712Z,1005.18
2023-01-05T05:10:10.091Z,1005.19
2023-01-05T05:11:10.051Z,1005.13
2023-01-05T05:12:10.015Z,1005.16
2023-01-05T05:13:09.975Z,1005.18
2023-01-05T05:14:10.104Z,1005.19
2023-01-05T05:15:09.921Z,1005.29
2023-01-05T05:16:09.925Z,1005.28
2023-01-05T05:17:09.859Z,1005.29
2023-01-05T05:18:09.978Z,1005.30
2023-01-05T05:19:09.788Z,1005.29
2023-01-05T05:20:09.824Z,1005.39
2023-01-05T05:21:09.717Z,1005.33
2023-01-05T05:22:09.683Z,1005.41
2023-01-05T05:23:09.661Z,1005.40
2023-01-05T05:24:09.629Z,1005.35
2023-01-05T05:25:09.586Z,1005.47
2023-01-05T05:26:09.611Z,1005.42
2023-01-05T05:27:09.523Z,1005.42
2023-01-05T05:28:09.501Z,1005.36
2023-01-05T05:29:09.438Z,1005.36
2023-01-05T05:30:09.425Z,1005.38
2023-01-05T05:31:09.418Z,1005.44
2023-01-05T05:32:09.421Z,1005.46
2023-01-05T05:33:09.334Z,1005.37
2023-01-05T05:34:09.278Z,1005.38
2023-01-05T05:35:09.246Z,1005.38
2023-01-05T05:36:09.212Z,1005.45
2023-01-05T05:37:09.184Z,1005.41
2023-01-05T05:38:09.208Z,1005.42
2023-01-05T05:39:09.108Z,1005.40
2023-01-05T05:40:09.084Z,1005.41
2023-01-05T05:41:09.051Z,1005.37
2023-01-05T05:42:09.015Z,1005.36
2023-01-05T05:43:08.985Z,1005.29
2023-01-05T05:44:09.021Z,1005.24
2023-01-05T05:45:08.917Z,1005.37
2023-01-05T05:46:08.981Z,1005.25
2023-01-05T05:47:08.841Z,1005.29
2023-01-05T05:48:08.818Z,1005.28
2023-01-05T05:49:08.774Z,1005.30
2023-01-05T05:50:08.805Z,1005.27
2023-01-05T05:51:08.709Z,1005.37
2023-01-05T05:52:08.722Z,1005.31
2023-01-05T05:53:08.648Z,1005.36
2023-01-05T05:54:08.634Z,1005.38
2023-01-05T05:55:08.579Z,1005.41
2023-01-05T05:56:08.595Z,1005.40
2023-01-05T05:57:08.510Z,1005.43
2023-01-05T05:58:08.475Z,1005.40
2023-01-05T05:59:08.455Z,1005.39
2023-01-05T06:00:08.417Z,1005.56
2023-01-05T06:01:08.404Z,1005.58
2023-01-05T06:02:08.547Z,1005.55
2023-01-05T06:03:08.514Z,1005.55
2023-01-05T06:04:08.292Z,1005.51
2023-01-05T06:05:08.259Z,1005.60
2023-01-05T06:06:08.207Z,1005.63
2023-01-05T06:07:08.173Z,1005.58
2023-01-05T06:08:08.251Z,1005.64
2023-01-05T06:09:08.123Z,1005.65
2023-01-05T06:10:08.078Z,1005.59
2023-01-05T06:11:08.048Z,1005.56
2023-01-05T06:12:08.011Z,1005.70
2023-01-05T06:13:07.979Z,1005.75
2023-01-05T06:14:08.012Z,1005.80
2023-01-05T06:15:07.913Z,1005.79
2023-01-05T06:16:07.948Z,1005.77
2023-01-05T06:17:07.838Z,1005.69
2023-01-05T06:18:07.819Z,1005.76
2023-01-05T06:19:07.810Z,1005.69
2023-01-05T06:20:07.825Z,1005.81
2023-01-05T06:21:07.708Z,1005.70
2023-01-05T06:22:07.678Z,1005.77
2023-01-05T06:23:07.642Z,1005.83
2023-01-05T06:24:07.612Z,1005.81
2023-01-05T06:25:07.628Z,1005.80
2023-01-05T06:26:07.540Z,1005.87
2023-01-05T06:27:07.511Z,1005.86
2023-01-05T06:28:07.588Z,1005.83
2023-01-05T06:29:07.446Z,1005.84
2023-01-05T06:30:07.474Z,1005.83
2023-01-05T06:31:07.415Z,1005.87
2023-01-05T06:32:07.339Z,1005.83
2023-01-05T06:33:07.427Z,1005.82
2023-01-05T06:34:07.274Z,1005.89
2023-01-05T06:35:07.291Z,1005.88
2023-01-05T06:36:07.203Z,1005.96
2023-01-05T06:37:07.189Z,1005.95
2023-01-05T06:38:07.309Z,1005.90
2023-01-05T06:39:07.094Z,1005.99
2023-01-05T06:40:07.098Z,1006.00
2023-01-05T06:41:07.104Z,1006.04
2023-01-05T06:42:07.022Z,1006.07
2023-01-05T06:43:06.986Z,1006.08
2023-01-05T06:44:06.946Z,1006.13
2023-01-05T06:45:06.912Z,1006.05
2023-01-05T06:46:06.933Z,1006.03
2023-01-05T06:47:06.883Z,1006.06
2023-01-05T06:48:06.816Z,1006.03
2023-01-05T06:49:06.771Z,1005.99
2023-01-05T06:50:06.737Z,1006.06
2023-01-05T06:51:06.718Z,1006.07
2023-01-05T06:52:10.924Z,1006.03
2023-01-05T06:53:06.689Z,1006.11
2023-01-05T06:54:06.599Z,1006.09
2023-01-05T06:55:06.582Z,1006.09
2023-01-05T06:56:06.532Z,1006.05
2023-01-05T06:57:06.494Z,1006.06
2023-01-05T06:58:06.460Z,1006.07
2023-01-05T06:59:06.502Z,1006.15
2023-01-05T07:00:06.400Z,1006.11
2023-01-05T07:01:06.404Z,1006.18
2023-01-05T07:02:06.349Z,1006.25
2023-01-05T07:03:06.318Z,1006.39
2023-01-05T07:04:06.330Z,1006.39
2023-01-05T07:05:06.266Z,1006.44
2023-01-05T07:06:10.068Z,1006.46
2023-01-05T07:07:06.159Z,1006.40
2023-01-05T07:08:06.122Z,1006.30
2023-01-05T07:09:06.091Z,1006.22
2023-01-05T07:10:06.125Z,1006.33
2023-01-05T07:11:06.016Z,1006.37
2023-01-05T07:12:05.975Z,1006.33
2023-01-05T07:13:05.953Z,1006.48
2023-01-05T07:14:05.922Z,1006.43
2023-01-05T07:15:05.877Z,1006.38
2023-01-05T07:16:05.965Z,1006.57
2023-01-05T07:17:05.818Z,1006.59
2023-01-05T07:18:05.791Z,1006.66
2023-01-05T07:19:05.743Z,1006.62
2023-01-05T07:20:05.710Z,1006.54
2023-01-05T07:21:05.678Z,1006.65
2023-01-05T07:22:05.707Z,1006.49
2023-01-05T07:23:05.614Z,1006.55
2023-01-05T07:24:05.585Z,1006.51
2023-01-05T07:25:05.531Z,1006.57
2023-01-05T07:26:05.504Z,1006.55
2023-01-05T07:27:09.618Z,1006.49
2023-01-05T07:28:05.499Z,1006.53
2023-01-05T07:29:05.392Z,1006.53
2023-01-05T07:30:05.363Z,1006.68
2023-01-05T07:31:05.323Z,1006.64
2023-01-05T07:32:05.385Z,1006.69
2023-01-05T07:33:05.279Z,1006.58
2023-01-05T07:34:05.283Z,1006.64
2023-01-05T07:35:05.196Z,1006.67
2023-01-05T07:36:05.171Z,1006.64
2023-01-05T07:37:05.120Z,1006.69
2023-01-05T07:38:05.096Z,1006.73
2023-01-05T07:39:05.056Z,1006.73
2023-01-05T07:40:05.081Z,1006.72
2023-01-05T07:41:05.031Z,1006.73
2023-01-05T07:42:04.948Z,1006.76
2023-01-05T07:43:04.910Z,1006.79
2023-01-05T07:44:04.884Z,1006.76
2023-01-05T07:45:04.835Z,1006.76
2023-01-05T07:46:04.942Z,1006.78
2023-01-05T07:47:04.778Z,1006.73
2023-01-05T07:48:04.742Z,1006.81
2023-01-05T07:49:04.707Z,1006.83
2023-01-05T07:50:04.700Z,1006.88
2023-01-05T07:51:04.675Z,1006.97
2023-01-05T07:52:04.652Z,1006.91
2023-01-05T07:53:04.564Z,1006.94
2023-01-05T07:54:04.538Z,1007.03
2023-01-05T07:55:04.488Z,1006.98
2023-01-05T07:56:04.470Z,1007.01
2023-01-05T07:57:04.487Z,1007.05
2023-01-05T07:58:04.400Z,1007.04
2023-01-05T07:59:04.381Z,1007.04
2023-01-05T08:00:04.354Z,1007.06
2023-01-05T08:01:04.396Z,1007.06
2023-01-05T08:02:04.415Z,1007.07
2023-01-05T08:03:04.261Z,1007.06
2023-01-05T08:04:04.277Z,1007.13
2023-01-05T08:05:04.182Z,1007.15
2023-01-05T08:06:04.118Z,1007.11
2023-01-05T08:07:04.080Z,1007.09
2023-01-05T08:08:04.106Z,1007.11
2023-01-05T08:09:04.033Z,1007.13
2023-01-05T08:10:03.981Z,1007.20
2023-01-05T08:11:03.952Z,1007.19
2023-01-05T08:12:03.913Z,1007.16
2023-01-05T08:13:03.870Z,1007.34
2023-01-05T08:14:03.897Z,1007.26
2023-01-05T08:15:03.833Z,1007.25
2023-01-05T08:16:03.923Z,1007.30
2023-01-05T08:17:03.744Z,1007.34
2023-01-05T08:18:03.707Z,1007.32
2023-01-05T08:19:09.224Z,1007.33
2023-01-05T08:20:03.697Z,1007.31
2023-01-05T08:21:03.603Z,1007.33
2023-01-05T08:22:03.580Z,1007.42
2023-01-05T08:23:03.536Z,1007.41
2023-01-05T08:24:03.491Z,1007.43
2023-01-05T08:25:03.463Z,1007.40
2023-01-05T08:26:03.479Z,1007.40
2023-01-05T08:27:03.521Z,1007.51
2023-01-05T08:28:03.354Z,1007.50
2023-01-05T08:29:03.337Z,1007.52
2023-01-05T08:30:03.287Z,1007.48
2023-01-05T08:31:03.252Z,1007.49
2023-01-05T08:32:03.303Z,1007.49
2023-01-05T08:33:03.182Z,1007.48
2023-01-05T08:34:03.146Z,1007.52
2023-01-05T08:35:03.114Z,1007.54
2023-01-05T08:36:03.081Z,1007.59
2023-01-05T08:37:03.056Z,1007.63
2023-01-05T08:38:03.084Z,1007.64
2023-01-05T08:39:02.978Z,1007.67
2023-01-05T08:40:02.963Z,1007.65
2023-01-05T08:41:02.913Z,1007.63
2023-01-05T08:42:03.164Z,1007.63
2023-01-05T08:43:02.845Z,1007.58
2023-01-05T08:44:02.865Z,1007.57
2023-01-05T08:45:02.768Z,1007.62
2023-01-05T08:46:02.818Z,1007.59
2023-01-05T08:47:02.701Z,1007.67
2023-01-05T08:48:02.664Z,1007.65
2023-01-05T08:49:02.653Z,1007.69
2023-01-05T08:50:02.646Z,1007.62
2023-01-05T08:51:02.568Z,1007.79
2023-01-05T08:52:02.526Z,1007.76
2023-01-05T08:53:02.499Z,1007.86
2023-01-05T08:54:02.467Z,1007.83
2023-01-05T08:55:02.422Z,1007.92
2023-01-05T08:56:02.461Z,1007.92
2023-01-05T08:57:02.372Z,1007.84
2023-01-05T08:58:02.387Z,1007.89
2023-01-05T08:59:02.297Z,1008.02
2023-01-05T09:00:02.303Z,1007.98
2023-01-05T09:01:02.302Z,1008.02
2023-01-05T09:02:02.395Z,1008.01
2023-01-05T09:03:02.218Z,1007.99
2023-01-05T09:04:02.130Z,1007.95
2023-01-05T09:05:02.092Z,1008.00
2023-01-05T09:06:02.119Z,1008.01
2023-01-05T09:07:02.029Z,1008.01
2023-01-05T09:08:01.991Z,1008.08
2023-01-05T09:09:01.974Z,1007.93
2023-01-05T09:10:01.921Z,1008.01
2023-01-05T09:11:01.889Z,1007.98
2023-01-05T09:12:01.910Z,1008.00
2023-01-05T09:13:01.822Z,1008.07
2023-01-05T09:14:01.786Z,1008.01
2023-01-05T09:15:01.751Z,1008.05
2023-01-05T09:16:01.708Z,1008.06
2023-01-05T09:17:09.579Z,1008.10
2023-01-05T09:18:01.810Z,1008.11
2023-01-05T09:19:01.670Z,1008.18
2023-01-05T09:20:01.573Z,1008.14
2023-01-05T09:21:01.555Z,1008.20
2023-01-05T09:22:01.505Z,1008.29
2023-01-05T09:23:01.469Z,1008.28
2023-01-05T09:24:01.495Z,1008.34
2023-01-05T09:25:01.420Z,1008.32
2023-01-05T09:26:01.372Z,1008.29
2023-01-05T09:27:01.428Z,1008.32
2023-01-05T09:28:01.424Z,1008.36
2023-01-05T09:29:01.321Z,1008.40
2023-01-05T09:30:01.527Z,1008.47
2023-01-05T09:31:01.374Z,1008.44
2023-01-05T09:32:01.380Z,1008.47
2023-01-05T09:33:01.276Z,1008.58
2023-01-05T09:34:01.199Z,1008.53
2023-01-05T09:35:01.158Z,1008.57
2023-01-05T09:36:01.187Z,1008.70
2023-01-05T09:37:01.155Z,1008.65
2023-01-05T09:38:01.242Z,1008.61
2023-01-05T09:39:00.949Z,1008.60
2023-01-05T09:40:00.931Z,1008.64
2023-01-05T09:41:00.873Z,1008.79
2023-01-05T09:42:00.836Z,1008.59
2023-01-05T09:43:00.810Z,1008.63
2023-01-05T09:44:00.816Z,1008.65
2023-01-05T09:45:00.750Z,1008.63
2023-01-05T09:46:00.828Z,1008.71
2023-01-05T09:47:00.663Z,1008.65
2023-01-05T09:48:00.630Z,1008.66
2023-01-05T09:49:00.653Z,1008.73
2023-01-05T09:50:00.565Z,1008.76
2023-01-05T09:51:00.532Z,1008.75
2023-01-05T09:52:00.491Z,1008.77
2023-01-05T09:53:00.484Z,1008.74
2023-01-05T09:54:00.425Z,1008.77
2023-01-05T09:55:00.450Z,1008.82
2023-01-05T09:56:00.361Z,1008.81
2023-01-05T09:57:09.665Z,1008.89
2023-01-05T09:58:00.288Z,1008.90
2023-01-05T09:59:00.257Z,1008.91
2023-01-05T10:00:00.283Z,1008.86
2023-01-05T10:01:00.198Z,1008.99
2023-01-05T10:02:00.234Z,1009.05
2023-01-05T10:03:00.231Z,1008.94
2023-01-05T10:04:04.518Z,1008.99
2023-01-05T10:05:00.190Z,1009.03
2023-01-05T10:06:00.025Z,1009.03
2023-01-05T10:06:59.975Z,1009.02
2023-01-05T10:07:59.944Z,1009.04
2023-01-05T10:08:59.914Z,1009.09
2023-01-05T10:09:59.874Z,1009.01
2023-01-05T10:10:59.946Z,1009.00
2023-01-05T10:11:59.811Z,1009.09
2023-01-05T10:12:59.779Z,1009.01
2023-01-05T10:13:59.738Z,1009.01
2023-01-05T10:14:59.705Z,1009.01
2023-01-05T10:15:59.701Z,1009.14
2023-01-05T10:17:30.572Z,1009.15
2023-01-05T10:17:59.673Z,1009.10
2023-01-05T10:18:59.575Z,1009.06
2023-01-05T10:19:59.555Z,1009.13
2023-01-05T10:20:59.509Z,1009.09
2023-01-05T10:21:59.477Z,1009.18
2023-01-05T10:22:59.513Z,1009.10
2023-01-05T10:23:59.405Z,1009.02
2023-01-05T10:24:59.364Z,1009.03
2023-01-05T10:25:59.330Z,1009.12
2023-01-05T10:27:24.121Z,1009.08
2023-01-05T10:27:59.259Z,1009.08
2023-01-05T10:28:59.289Z,1009.07
2023-01-05T10:29:59.199Z,1009.12
2023-01-05T10:30:59.207Z,1009.11
2023-01-05T10:31:59.123Z,1009.12
2023-01-05T10:33:21.978Z,1009.15
2023-01-05T10:34:05.097Z,1009.24
2023-01-05T10:34:59.343Z,1009.18
2023-01-05T10:36:01.756Z,1009.22
2023-01-05T10:37:08.422Z,1009.29
2023-01-05T10:37:58.917Z,1009.27
2023-01-05T10:38:58.880Z,1009.29
2023-01-05T10:39:58.862Z,1009.40
2023-01-05T10:40:58.889Z,1009.37
2023-01-05T10:41:58.789Z,1009.38
2023-01-05T10:42:58.754Z,1009.58
2023-01-05T10:43:58.714Z,1009.45
2023-01-05T10:44:58.689Z,1009.42
2023-01-05T10:46:30.684Z,1009.49
2023-01-05T10:46:58.741Z,1009.37
2023-01-05T10:47:58.630Z,1009.46
2023-01-05T10:48:58.561Z,1009.45
2023-01-05T10:49:58.589Z,1009.49
2023-01-05T10:50:58.495Z,1009.50
2023-01-05T10:51:58.453Z,1009.56
2023-01-05T10:52:58.485Z,1009.63
2023-01-05T10:53:58.370Z,1009.60
2023-01-05T10:54:58.353Z,1009.68
2023-01-05T10:55:58.317Z,1009.64
2023-01-05T10:56:58.280Z,1009.61
2023-01-05T10:57:58.264Z,1009.59
2023-01-05T10:58:58.290Z,1009.57
2023-01-05T10:59:58.214Z,1009.67
2023-01-05T11:00:58.153Z,1009.65
2023-01-05T11:01:58.152Z,1009.65
2023-01-05T11:02:58.089Z,1009.68
2023-01-05T11:04:25.553Z,1009.64
2023-01-05T11:04:58.110Z,1009.71
2023-01-05T11:05:58.057Z,1009.76
2023-01-05T11:06:57.939Z,1009.66
2023-01-05T11:07:57.901Z,1009.68
2023-01-05T11:08:57.873Z,1009.67
2023-01-05T11:09:57.840Z,1009.74
2023-01-05T11:10:57.855Z,1009.74
2023-01-05T11:11:57.780Z,1009.74
2023-01-05T11:12:57.733Z,1009.72
2023-01-05T11:13:57.730Z,1009.85
2023-01-05T11:14:59.171Z,1009.83
2023-01-05T11:15:57.692Z,1009.79
2023-01-05T11:16:57.658Z,1009.76
2023-01-05T11:17:57.582Z,1009.83
2023-01-05T11:18:57.546Z,1009.79
2023-01-05T11:19:57.512Z,1009.70
2023-01-05T11:20:57.487Z,1009.85
2023-01-05T11:22:01.917Z,1010.01
2023-01-05T11:22:57.460Z,1009.89
2023-01-05T11:23:57.388Z,1009.97
2023-01-05T11:24:57.407Z,1009.97
2023-01-05T11:25:57.312Z,1009.95
2023-01-05T11:26:57.265Z,1009.95
2023-01-05T11:28:01.981Z,1009.90
2023-01-05T11:28:57.294Z,1009.93
2023-01-05T11:29:57.178Z,1009.91
2023-01-05T11:30:57.178Z,1009.97
2023-01-05T11:31:57.102Z,1009.97
2023-01-05T11:32:57.064Z,1009.87
2023-01-05T11:33:57.036Z,1009.99
2023-01-05T11:34:57.067Z,1009.98
2023-01-05T11:35:56.974Z,1009.98
2023-01-05T11:36:59.175Z,1009.99
2023-01-05T11:37:56.974Z,1010.03
2023-01-05T11:38:56.876Z,1010.08
2023-01-05T11:39:56.850Z,1010.15
2023-01-05T11:40:56.853Z,1010.06
2023-01-05T11:41:56.771Z,1010.17
2023-01-05T11:42:56.730Z,1010.25
2023-01-05T11:43:56.695Z,1010.17
2023-01-05T11:44:56.667Z,1010.16
2023-01-05T11:45:56.721Z,1010.11
2023-01-05T11:46:56.695Z,1010.11
2023-01-05T11:47:56.556Z,1010.23
2023-01-05T11:48:56.541Z,1010.12
2023-01-05T11:49:58.631Z,1010.20
2023-01-05T11:50:56.473Z,1010.21
2023-01-05T11:51:56.433Z,1010.17
2023-01-05T11:52:56.520Z,1010.18
2023-01-05T11:53:56.447Z,1010.30
2023-01-05T11:54:56.326Z,1010.25
2023-01-05T11:55:56.295Z,1010.31
2023-01-05T11:56:56.258Z,1010.27
2023-01-05T11:58:00.276Z,1010.31
2023-01-05T11:58:56.252Z,1010.27
2023-01-05T11:59:56.158Z,1010.28
2023-01-05T12:00:56.203Z,1010.39
2023-01-05T12:01:56.127Z,1010.22
2023-01-05T12:02:56.108Z,1010.21
2023-01-05T12:03:58.827Z,1010.23
2023-01-05T12:04:56.605Z,1010.40